Impacts TAF Board
For situational awareness. Not to be used for flight planning purposes.
IDs:

KBFM - Mobile/Downtown Arpt, AL, US

Issued at 1736 UTC 07 Dec 2021
Updated at 1923 UTC 07 Dec 2021
Potential Impact None Slight Moderate High
Time1853Z 07/20Z 07/21Z 07/22Z 07/23Z 08/00Z 08/01Z 08/02Z 08/03Z 08/04Z 08/05Z 08/06Z 08/07Z 08/08Z>>
Type OBS PRVL PRVL PRVL PRVL PRVL PRVL PRVL PRVL PRVL PRVL PRVL PRVL PRVL
VIS 7 6 6 6 6 6 6 6 6 6 5 5 5 5
CIG 4 6 10 10 10 10 10 10 10 10 9 9 9 9
Cover OVC OVC OVC OVC OVC OVC OVC OVC OVC OVC OVC OVC OVC OVC
FltCat LIFR IFR MVFR MVFR MVFR MVFR MVFR MVFR MVFR MVFR IFR IFR IFR IFR
WX -- BR BR BR BR BR BR BR BR BR -SHRA BR -SHRA BR -SHRA BR -SHRA BR
WDir 20 10 40 40 40 40 40 40 40 40 VRB VRB VRB VRB
WSpd 6 6 4 4 4 4 4 4 4 4 0 0 0 0
WGst -- -- -- -- -- -- -- -- -- -- -- -- -- --
WSHgt -- -- -- -- -- -- -- -- -- -- -- -- -- --
WSDir -- -- -- -- -- -- -- -- -- -- -- -- -- --
WSSpd -- -- -- -- -- -- -- -- -- -- -- -- -- --
Raw TAF
KBFM 071736Z 0718/0818 01006KT 6SM BR OVC006
  FM072100 04004KT 6SM BR OVC010
  FM080500 00000KT 5SM -SHRA BR OVC009
  FM081000 00000KT 1 1/2SM SHRA BR OVC008
  FM081200 VRB03KT 2SM SHRA OVC009
  FM081500 35006KT 3SM BR OVC003


Raw METAR
KBFM 071853Z 02006KT 7SM OVC004 14/11 A3007 RMK AO2 SLP182 T01390111 $
KBFM 071759Z 02007KT 10SM OVC004 14/11 A3010 RMK AO2 T01390111 $
KBFM 071753Z 02007KT 7SM OVC005 14/11 A3010 RMK AO2 SLP194 60000 T01390111 10139 20122 58011 $
KBFM 071653Z 36006KT 6SM BR OVC006 13/11 A3014 RMK AO2 SLP205 T01280106 $

METAR Board
Radar Display
Forecast Discussion
For situational awareness. Not to be used for flight planning purposes.